Time;durP1;ratioP1;P1;durP2;ratioP2;P2;SDS_P1;SDS_P2;PMS_P1;PMS_P2;Temp;Humidity;BMP_temperature;BMP_pressure;BME280_temperature;BME280_humidity;BME280_pressure;Samples;Min_cycle;Max_cycle;Signal;HPM_P1;HPM_P2
2023/12/16 00:01:36;;;;;;;2.10;1.38;;;5.50;99.90;;;;;;4975263;28;20039;-83
2023/12/16 00:04:02;;;;;;;4.97;2.40;;;5.50;99.90;;;;;;4962255;28;20039;-83
2023/12/16 00:06:28;;;;;;;3.08;1.75;;;5.50;99.90;;;;;;4960607;28;20031;-83
2023/12/16 00:08:55;;;;;;;16.58;2.03;;;5.50;99.90;;;;;;4963342;28;20101;-83
2023/12/16 00:11:21;;;;;;;1.73;1.63;;;5.40;99.90;;;;;;4961627;28;20464;-81
2023/12/16 00:13:47;;;;;;;2.42;2.00;;;5.30;99.90;;;;;;4959208;28;20035;-82
2023/12/16 00:16:13;;;;;;;2.88;2.65;;;5.30;99.90;;;;;;4958015;28;20070;-83
2023/12/16 00:18:39;;;;;;;2.20;1.98;;;5.20;99.90;;;;;;4953853;28;20050;-83
2023/12/16 00:21:07;;;;;;;1.20;1.17;;;5.20;99.90;;;;;;4964649;28;20051;-83
2023/12/16 00:23:33;;;;;;;4.38;1.60;;;5.30;99.90;;;;;;4963863;28;20047;-83
2023/12/16 00:25:59;;;;;;;2.47;2.03;;;5.30;99.90;;;;;;4952988;28;20042;-83
2023/12/16 00:28:26;;;;;;;2.95;1.80;;;5.10;99.90;;;;;;4944969;28;20031;-83
2023/12/16 00:30:52;;;;;;;1.23;1.15;;;5.10;99.90;;;;;;4947547;28;20042;-82
2023/12/16 00:33:19;;;;;;;1.77;1.65;;;5.00;99.90;;;;;;4960579;28;20051;-83
2023/12/16 00:35:45;;;;;;;1.83;1.73;;;5.10;99.90;;;;;;4957033;28;20496;-83
2023/12/16 00:38:11;;;;;;;1.70;1.60;;;4.90;99.90;;;;;;4960671;28;20034;-83
2023/12/16 00:40:38;;;;;;;2.42;2.22;;;4.90;99.90;;;;;;4945507;28;20047;-83
2023/12/16 00:43:05;;;;;;;0.70;0.70;;;4.80;99.90;;;;;;4975813;28;20030;-84
2023/12/16 00:45:31;;;;;;;0.38;0.38;;;4.80;99.90;;;;;;4962025;29;20050;-85
2023/12/16 00:47:57;;;;;;;3.53;1.83;;;4.70;99.90;;;;;;4988797;28;20051;-84
2023/12/16 00:50:24;;;;;;;1.52;1.30;;;4.60;99.90;;;;;;4983515;28;20027;-84
2023/12/16 00:52:50;;;;;;;1.20;1.17;;;4.60;99.90;;;;;;4955293;28;20650;-83
2023/12/16 00:55:16;;;;;;;0.50;0.50;;;4.50;99.90;;;;;;4965549;28;20038;-84
2023/12/16 00:57:42;;;;;;;2.88;2.47;;;4.50;99.90;;;;;;4960370;28;20027;-83
2023/12/16 01:00:09;;;;;;;4.13;2.97;;;4.40;99.90;;;;;;4962108;28;20038;-84
2023/12/16 01:02:35;;;;;;;3.70;2.50;;;4.40;99.90;;;;;;4976447;28;20039;-83
2023/12/16 01:05:02;;;;;;;0.90;0.88;;;4.30;99.90;;;;;;4948578;28;20047;-84
2023/12/16 01:07:28;;;;;;;4.60;2.60;;;4.30;99.90;;;;;;4960942;28;20039;-85
2023/12/16 01:09:55;;;;;;;3.78;3.20;;;4.20;99.90;;;;;;4942366;28;20035;-83
2023/12/16 01:12:21;;;;;;;2.20;2.00;;;4.10;99.90;;;;;;4963367;28;20046;-83
2023/12/16 01:14:47;;;;;;;1.27;1.17;;;4.10;99.90;;;;;;4964709;28;20043;-84
2023/12/16 01:17:13;;;;;;;2.70;2.50;;;4.00;99.90;;;;;;4960152;28;20039;-84
2023/12/16 01:19:39;;;;;;;3.30;2.08;;;4.00;99.90;;;;;;4961717;28;20031;-84
2023/12/16 01:22:05;;;;;;;1.55;1.45;;;4.00;99.90;;;;;;4961858;28;20059;-84
2023/12/16 01:24:36;;;;;;;1.15;0.93;;;4.00;99.90;;;;;;4947773;28;20039;-85
2023/12/16 01:27:04;;;;;;;1.90;1.50;;;4.00;99.90;;;;;;4943607;28;20043;-83
2023/12/16 01:29:31;;;;;;;1.20;1.10;;;4.00;99.90;;;;;;4958544;28;20046;-84
2023/12/16 01:31:57;;;;;;;1.88;1.77;;;4.00;99.90;;;;;;4965321;28;20046;-84
2023/12/16 01:34:23;;;;;;;3.55;1.83;;;3.90;99.90;;;;;;4964909;28;20035;-84
2023/12/16 01:36:49;;;;;;;0.98;0.98;;;3.80;99.90;;;;;;4933555;28;20046;-84
2023/12/16 01:39:15;;;;;;;2.03;1.30;;;3.80;99.90;;;;;;4960779;28;20035;-83
2023/12/16 01:41:41;;;;;;;4.38;2.03;;;3.90;99.90;;;;;;4964807;28;20057;-83
2023/12/16 01:44:07;;;;;;;0.45;0.45;;;3.90;99.90;;;;;;4964961;28;20039;-84
2023/12/16 01:46:35;;;;;;;1.20;1.10;;;3.90;99.90;;;;;;4965208;28;20050;-84
2023/12/16 01:49:02;;;;;;;2.13;2.00;;;3.90;99.90;;;;;;4946369;28;20047;-84
2023/12/16 01:51:30;;;;;;;0.38;0.38;;;3.90;99.90;;;;;;4949694;28;20054;-83
2023/12/16 01:53:56;;;;;;;2.78;2.35;;;3.90;99.90;;;;;;4961650;28;20035;-84
2023/12/16 01:56:22;;;;;;;2.67;2.47;;;3.90;99.90;;;;;;4960167;28;20058;-84
2023/12/16 01:58:50;;;;;;;4.80;0.65;;;3.90;99.90;;;;;;4961915;28;20027;-83
2023/12/16 02:01:16;;;;;;;2.95;2.63;;;4.00;99.90;;;;;;4939379;28;20050;-84
2023/12/16 02:03:45;;;;;;;1.02;1.02;;;4.00;99.90;;;;;;4958396;28;20047;-84
2023/12/16 02:06:11;;;;;;;1.70;1.60;;;4.10;99.90;;;;;;4947201;28;20057;-83
2023/12/16 02:08:37;;;;;;;0.82;0.80;;;4.10;99.90;;;;;;4965296;28;20042;-83
2023/12/16 02:11:03;;;;;;;3.30;3.05;;;4.00;99.90;;;;;;4964151;28;20039;-83
2023/12/16 02:13:29;;;;;;;0.93;0.90;;;4.00;99.90;;;;;;4965579;28;20043;-83
2023/12/16 02:15:56;;;;;;;2.85;2.65;;;4.00;99.90;;;;;;4946702;28;20074;-83
2023/12/16 02:18:22;;;;;;;2.03;1.88;;;4.10;99.90;;;;;;4973470;28;20404;-83
2023/12/16 02:20:48;;;;;;;1.33;1.23;;;4.20;99.90;;;;;;4974440;28;20038;-83
2023/12/16 02:23:16;;;;;;;0.93;0.93;;;4.20;99.90;;;;;;4959347;28;20043;-83
2023/12/16 02:25:42;;;;;;;3.58;1.42;;;4.10;99.90;;;;;;4958915;28;20457;-84
2023/12/16 02:28:09;;;;;;;0.63;0.63;;;4.10;99.90;;;;;;4992766;28;20027;-83
2023/12/16 02:30:36;;;;;;;1.30;1.20;;;4.10;99.90;;;;;;4965551;28;20051;-84
2023/12/16 02:33:02;;;;;;;1.58;1.48;;;4.20;99.90;;;;;;4963330;28;20042;-83
2023/12/16 02:35:29;;;;;;;2.03;1.20;;;4.20;99.90;;;;;;4962383;28;20039;-83
2023/12/16 02:37:55;;;;;;;3.80;2.00;;;4.10;99.90;;;;;;4950122;28;20050;-84
2023/12/16 02:40:21;;;;;;;3.65;1.85;;;4.20;99.90;;;;;;4965132;28;20038;-84
2023/12/16 02:42:47;;;;;;;1.88;1.45;;;4.20;99.90;;;;;;4948398;28;20047;-84
2023/12/16 02:45:13;;;;;;;0.77;0.77;;;4.20;99.90;;;;;;4965020;28;20050;-84
2023/12/16 02:47:39;;;;;;;1.55;1.38;;;4.30;99.90;;;;;;4945065;28;20054;-83
2023/12/16 02:50:07;;;;;;;0.88;0.88;;;4.30;99.90;;;;;;4950513;29;20044;-83
2023/12/16 02:52:33;;;;;;;1.90;1.73;;;4.30;99.90;;;;;;4935452;29;20040;-84
2023/12/16 02:55:01;;;;;;;1.85;1.75;;;4.20;99.90;;;;;;4936268;29;20130;-84
2023/12/16 02:57:27;;;;;;;1.38;1.27;;;4.30;99.90;;;;;;4966912;28;20023;-84
2023/12/16 02:59:53;;;;;;;1.48;1.02;;;4.30;99.90;;;;;;4960583;28;20058;-82
2023/12/16 03:02:19;;;;;;;8.55;2.42;;;4.30;99.90;;;;;;4943540;28;20027;-84
2023/12/16 03:04:46;;;;;;;1.20;1.17;;;4.30;99.90;;;;;;4943253;28;20503;-84
2023/12/16 03:07:12;;;;;;;0.70;0.70;;;4.30;99.90;;;;;;4937632;29;20048;-83
2023/12/16 03:09:38;;;;;;;1.27;1.23;;;4.30;99.90;;;;;;4927618;28;20052;-85
2023/12/16 03:12:06;;;;;;;3.00;2.72;;;4.30;99.90;;;;;;4926417;29;20044;-83
2023/12/16 03:14:34;;;;;;;3.58;3.28;;;4.40;99.90;;;;;;4929676;29;20043;-83
2023/12/16 03:17:00;;;;;;;1.75;1.23;;;4.40;99.90;;;;;;4925366;29;20047;-83
2023/12/16 03:19:27;;;;;;;0.52;0.52;;;4.40;99.90;;;;;;4925951;29;20048;-84
2023/12/16 03:21:53;;;;;;;3.55;3.25;;;4.40;99.90;;;;;;4926720;29;20036;-84
2023/12/16 03:24:19;;;;;;;5.20;3.78;;;4.40;99.90;;;;;;4931661;29;20038;-84
2023/12/16 03:26:46;;;;;;;1.92;1.75;;;4.50;99.90;;;;;;4926639;29;20032;-83
2023/12/16 03:29:12;;;;;;;2.10;1.95;;;4.50;99.90;;;;;;4939498;29;20040;-83
2023/12/16 03:31:38;;;;;;;1.25;1.25;;;4.50;99.90;;;;;;4927672;29;20035;-84
2023/12/16 03:34:04;;;;;;;1.85;1.75;;;4.40;99.90;;;;;;4909445;29;20055;-83
2023/12/16 03:36:31;;;;;;;1.38;1.30;;;4.40;99.90;;;;;;4927601;29;20031;-83
2023/12/16 03:38:57;;;;;;;5.10;3.13;;;4.40;99.90;;;;;;4918614;29;20020;-84
2023/12/16 03:41:23;;;;;;;1.77;1.67;;;4.50;99.90;;;;;;4926324;29;20074;-83
2023/12/16 03:43:50;;;;;;;2.80;2.55;;;4.60;99.90;;;;;;4930949;29;20031;-83
2023/12/16 03:46:17;;;;;;;5.07;2.35;;;4.70;99.90;;;;;;4933991;29;20481;-83
2023/12/16 03:48:43;;;;;;;2.35;2.15;;;4.70;99.90;;;;;;4928301;29;20040;-83
2023/12/16 03:51:10;;;;;;;1.95;1.75;;;4.70;99.90;;;;;;4932045;29;20409;-83
2023/12/16 03:53:36;;;;;;;2.92;2.58;;;4.60;99.90;;;;;;4946419;29;20044;-85
2023/12/16 03:56:03;;;;;;;1.77;1.48;;;4.50;99.90;;;;;;4918218;29;20040;-83
2023/12/16 03:58:30;;;;;;;2.28;1.73;;;4.50;99.90;;;;;;4910622;29;20051;-83
2023/12/16 04:00:56;;;;;;;1.40;1.30;;;4.60;99.90;;;;;;4930230;29;20044;-84
2023/12/16 04:03:22;;;;;;;1.55;1.45;;;4.60;99.90;;;;;;4931923;29;20044;-83
2023/12/16 04:05:49;;;;;;;1.45;1.20;;;4.60;99.90;;;;;;4943276;29;20595;-83
2023/12/16 04:08:15;;;;;;;3.35;2.60;;;4.50;99.90;;;;;;4927178;29;20054;-83
2023/12/16 04:10:42;;;;;;;3.10;2.47;;;4.50;99.90;;;;;;4923239;29;20050;-84
2023/12/16 04:13:08;;;;;;;3.22;2.58;;;4.40;99.90;;;;;;4933011;29;20114;-84
2023/12/16 04:15:34;;;;;;;3.47;2.05;;;4.50;99.90;;;;;;4940179;29;20047;-83
2023/12/16 04:18:00;;;;;;;1.63;1.02;;;4.40;99.90;;;;;;4927418;29;20027;-83
2023/12/16 04:20:26;;;;;;;5.68;4.13;;;4.50;99.90;;;;;;4938353;28;20055;-83
2023/12/16 04:22:52;;;;;;;6.25;2.63;;;4.50;99.90;;;;;;4924750;29;20039;-83
2023/12/16 04:25:18;;;;;;;2.50;1.85;;;4.60;99.90;;;;;;4925800;29;20032;-84
2023/12/16 04:27:45;;;;;;;1.25;1.15;;;4.70;99.90;;;;;;4941993;29;20032;-84
2023/12/16 04:30:11;;;;;;;0.85;0.70;;;4.70;99.90;;;;;;4921097;29;20059;-83
2023/12/16 04:32:37;;;;;;;2.25;2.05;;;4.70;99.90;;;;;;4893591;29;20529;-84
2023/12/16 04:35:04;;;;;;;2.95;1.92;;;4.60;99.90;;;;;;4926236;29;20241;-83
2023/12/16 04:37:30;;;;;;;2.58;1.95;;;4.60;99.90;;;;;;4929798;29;20051;-83
2023/12/16 04:39:56;;;;;;;3.22;2.92;;;4.60;99.90;;;;;;4917494;29;20051;-84
2023/12/16 04:42:22;;;;;;;2.17;2.00;;;4.60;99.90;;;;;;4910586;29;20044;-84
2023/12/16 04:44:48;;;;;;;1.63;1.52;;;4.60;99.90;;;;;;4920679;29;20035;-83
2023/12/16 04:47:14;;;;;;;2.72;2.58;;;4.50;99.90;;;;;;4953668;28;20039;-83
2023/12/16 04:49:41;;;;;;;1.45;1.35;;;4.50;99.90;;;;;;4968438;28;20034;-84
2023/12/16 04:52:07;;;;;;;3.15;2.92;;;4.50;99.90;;;;;;4972579;28;20041;-83
2023/12/16 04:54:33;;;;;;;2.92;2.72;;;4.50;99.90;;;;;;4937380;29;20042;-83
2023/12/16 04:56:59;;;;;;;4.72;1.80;;;4.50;99.90;;;;;;4968611;28;20038;-84
2023/12/16 04:59:25;;;;;;;2.33;2.22;;;4.50;99.90;;;;;;4989955;28;20035;-84
2023/12/16 05:01:51;;;;;;;1.40;1.33;;;4.50;99.90;;;;;;4979380;28;20050;-83
2023/12/16 05:04:18;;;;;;;2.55;2.38;;;4.40;99.90;;;;;;4973067;28;20456;-83
2023/12/16 05:06:45;;;;;;;2.13;1.65;;;4.50;99.90;;;;;;4973028;28;20388;-83
2023/12/16 05:09:12;;;;;;;1.40;1.30;;;4.40;99.90;;;;;;4976997;28;20038;-84
2023/12/16 05:11:38;;;;;;;2.25;1.60;;;4.40;99.90;;;;;;4981315;28;20045;-83
2023/12/16 05:14:05;;;;;;;1.20;1.10;;;4.40;99.90;;;;;;4955536;28;20057;-83
2023/12/16 05:16:31;;;;;;;2.78;2.45;;;4.40;99.90;;;;;;4984973;28;20035;-82
2023/12/16 05:19:02;;;;;;;1.92;1.83;;;4.30;99.90;;;;;;4968673;28;20053;-83
2023/12/16 05:21:30;;;;;;;3.30;3.05;;;4.40;99.90;;;;;;4965263;28;20051;-83
2023/12/16 05:23:56;;;;;;;6.80;1.90;;;4.40;99.90;;;;;;4948498;28;20027;-82
2023/12/16 05:26:22;;;;;;;1.02;0.88;;;4.30;99.90;;;;;;4958517;28;20132;-82
2023/12/16 05:28:48;;;;;;;3.00;2.10;;;4.30;99.90;;;;;;4947292;28;20042;-82
2023/12/16 05:31:15;;;;;;;0.40;0.40;;;4.40;99.90;;;;;;4938357;28;20049;-81
2023/12/16 05:33:43;;;;;;;4.85;3.60;;;4.30;99.90;;;;;;4947432;28;20038;-82
2023/12/16 05:36:09;;;;;;;4.25;3.85;;;4.40;99.90;;;;;;4951414;28;20118;-82
2023/12/16 05:38:36;;;;;;;5.60;2.63;;;4.40;99.90;;;;;;4929379;29;20035;-83
2023/12/16 05:41:02;;;;;;;3.92;2.95;;;4.40;99.90;;;;;;4954903;28;20039;-82
2023/12/16 05:43:28;;;;;;;7.05;3.55;;;4.40;99.90;;;;;;4949779;28;20047;-82
2023/12/16 05:45:55;;;;;;;2.28;1.98;;;4.40;99.90;;;;;;4954700;28;20051;-82
2023/12/16 05:48:21;;;;;;;2.17;2.05;;;4.40;99.90;;;;;;4964106;28;20035;-82
2023/12/16 05:50:47;;;;;;;2.88;2.55;;;4.40;99.90;;;;;;4964275;28;20031;-83
2023/12/16 05:53:13;;;;;;;4.85;2.28;;;4.40;99.90;;;;;;4966154;28;20500;-83
2023/12/16 05:55:39;;;;;;;2.65;2.42;;;4.30;99.90;;;;;;4980230;28;20035;-83
2023/12/16 05:58:06;;;;;;;2.15;2.05;;;4.30;99.90;;;;;;4958719;28;20047;-83
2023/12/16 06:00:32;;;;;;;3.20;2.08;;;4.30;99.90;;;;;;4944322;28;20066;-82
2023/12/16 06:02:58;;;;;;;2.53;2.03;;;4.30;99.90;;;;;;4948059;28;20043;-82
2023/12/16 06:05:25;;;;;;;2.00;1.88;;;4.30;99.90;;;;;;4970541;28;20041;-82
2023/12/16 06:07:51;;;;;;;2.15;2.05;;;4.40;99.90;;;;;;4965805;28;20039;-83
2023/12/16 06:10:17;;;;;;;4.00;1.80;;;4.40;99.90;;;;;;4963195;28;20043;-82
2023/12/16 06:12:43;;;;;;;2.97;2.63;;;4.40;99.90;;;;;;4970185;28;20384;-83
2023/12/16 06:15:10;;;;;;;13.43;1.98;;;4.40;99.90;;;;;;4956012;28;20047;-82
2023/12/16 06:17:36;;;;;;;1.58;1.50;;;4.40;99.90;;;;;;4955259;28;20047;-82
2023/12/16 06:20:04;;;;;;;5.55;2.70;;;4.40;99.90;;;;;;4957339;28;20050;-82
2023/12/16 06:22:31;;;;;;;2.80;1.70;;;4.40;99.90;;;;;;4967305;28;20030;-83
2023/12/16 06:24:58;;;;;;;1.40;1.35;;;4.40;99.90;;;;;;4949906;28;20503;-83
2023/12/16 06:27:24;;;;;;;4.85;3.05;;;4.40;99.90;;;;;;4949875;28;20035;-83
2023/12/16 06:29:50;;;;;;;5.43;3.65;;;4.40;99.90;;;;;;4960406;28;20050;-82
2023/12/16 06:32:16;;;;;;;3.88;2.80;;;4.40;99.90;;;;;;4959799;28;20499;-83
2023/12/16 06:34:42;;;;;;;2.90;2.70;;;4.40;99.90;;;;;;4967295;28;20043;-83
2023/12/16 06:37:09;;;;;;;2.30;1.83;;;4.40;99.90;;;;;;4968844;28;20038;-83
2023/12/16 06:39:35;;;;;;;2.58;2.22;;;4.40;99.90;;;;;;4964992;28;20035;-82
2023/12/16 06:42:01;;;;;;;1.52;1.42;;;4.40;99.90;;;;;;4961561;28;20051;-83
2023/12/16 06:44:27;;;;;;;4.03;2.97;;;4.30;99.90;;;;;;4967272;28;20491;-83
2023/12/16 06:46:53;;;;;;;2.17;2.00;;;4.30;99.90;;;;;;4967205;28;20492;-83
2023/12/16 06:49:19;;;;;;;3.88;2.25;;;4.30;99.90;;;;;;4962795;28;20042;-82
2023/12/16 06:51:46;;;;;;;2.53;2.25;;;4.40;99.90;;;;;;4961912;28;20044;-83
2023/12/16 06:54:12;;;;;;;6.00;3.80;;;4.40;99.90;;;;;;4967110;28;20047;-82
2023/12/16 06:56:38;;;;;;;7.00;3.30;;;4.40;99.90;;;;;;4965379;28;20035;-83
2023/12/16 06:59:04;;;;;;;1.63;1.30;;;4.50;99.90;;;;;;4954891;28;20055;-82
2023/12/16 07:01:30;;;;;;;4.53;1.90;;;4.40;99.90;;;;;;4962152;28;20055;-82
2023/12/16 07:03:56;;;;;;;3.05;2.60;;;4.40;99.90;;;;;;4943723;28;20397;-82
2023/12/16 07:06:23;;;;;;;1.50;1.40;;;4.40;99.90;;;;;;4966845;28;20023;-82
2023/12/16 07:08:49;;;;;;;1.92;1.05;;;4.40;99.90;;;;;;4970227;28;20050;-83
2023/12/16 07:11:15;;;;;;;4.47;2.83;;;4.50;99.90;;;;;;4948889;28;20397;-83
2023/12/16 07:13:41;;;;;;;1.63;1.52;;;4.50;99.90;;;;;;4955832;28;20043;-83
2023/12/16 07:16:09;;;;;;;5.57;4.47;;;4.50;99.90;;;;;;4956582;28;20090;-83
2023/12/16 07:18:35;;;;;;;4.57;3.60;;;4.40;99.90;;;;;;4975270;28;20039;-84
2023/12/16 07:21:05;;;;;;;3.33;3.03;;;4.40;99.90;;;;;;4954855;29;20047;-84
2023/12/16 07:23:33;;;;;;;4.03;1.93;;;4.50;99.90;;;;;;4985255;28;20039;-84
2023/12/16 07:26:00;;;;;;;2.90;2.63;;;4.50;99.90;;;;;;4999158;28;20035;-83
2023/12/16 07:28:27;;;;;;;2.30;2.15;;;4.50;99.90;;;;;;4973448;28;20011;-83
2023/12/16 07:30:53;;;;;;;2.30;2.17;;;4.50;99.90;;;;;;4983074;28;20431;-83
2023/12/16 07:33:19;;;;;;;2.53;2.28;;;4.60;99.90;;;;;;4966311;28;20047;-84
2023/12/16 07:35:46;;;;;;;2.35;2.17;;;4.60;99.90;;;;;;4969599;28;20046;-83
2023/12/16 07:38:12;;;;;;;4.35;3.08;;;4.60;99.90;;;;;;4964422;28;20042;-83
2023/12/16 07:40:38;;;;;;;4.05;2.88;;;4.60;99.90;;;;;;4947427;28;20043;-82
2023/12/16 07:43:04;;;;;;;6.05;5.45;;;4.70;99.90;;;;;;4966585;28;20039;-83
2023/12/16 07:45:31;;;;;;;9.30;8.27;;;4.70;99.90;;;;;;4971276;28;20034;-82
2023/12/16 07:47:57;;;;;;;12.98;11.80;;;4.70;99.90;;;;;;4942777;28;20051;-81
2023/12/16 07:50:23;;;;;;;14.05;11.40;;;4.70;99.90;;;;;;4927314;29;20028;-81
2023/12/16 07:52:49;;;;;;;47.80;35.22;;;4.70;99.90;;;;;;4933634;29;20039;-82
2023/12/16 07:55:15;;;;;;;41.72;36.20;;;4.70;99.90;;;;;;4928247;29;20048;-81
2023/12/16 07:57:41;;;;;;;30.50;20.83;;;4.70;99.90;;;;;;4931741;29;20054;-81
2023/12/16 08:00:09;;;;;;;24.50;17.38;;;4.80;99.90;;;;;;4930234;29;20035;-81
2023/12/16 08:02:35;;;;;;;13.68;12.18;;;4.80;99.90;;;;;;4899608;29;20052;-80
2023/12/16 08:05:05;;;;;;;10.43;9.57;;;4.80;99.90;;;;;;4929566;29;20470;-80
2023/12/16 08:07:31;;;;;;;5.07;4.43;;;4.80;99.90;;;;;;4928362;29;20043;-81
2023/12/16 08:09:58;;;;;;;2.67;2.53;;;4.80;99.90;;;;;;4922813;29;20043;-80
2023/12/16 08:12:24;;;;;;;38.65;29.20;;;4.90;99.90;;;;;;4927689;29;20473;-81
2023/12/16 08:14:50;;;;;;;15.48;11.93;;;4.90;99.90;;;;;;4926059;29;20039;-82
2023/12/16 08:17:17;;;;;;;6.13;5.40;;;4.90;99.90;;;;;;4930506;29;20139;-80
2023/12/16 08:19:43;;;;;;;7.80;4.43;;;5.00;99.90;;;;;;4934612;29;20047;-80
2023/12/16 08:22:09;;;;;;;2.83;2.50;;;5.00;99.90;;;;;;4925620;29;20040;-81
2023/12/16 08:24:35;;;;;;;5.40;5.00;;;5.00;99.90;;;;;;4921061;29;20043;-81
2023/12/16 08:27:01;;;;;;;2.78;2.63;;;5.00;99.90;;;;;;4941705;29;20374;-82
2023/12/16 08:29:27;;;;;;;8.43;4.55;;;5.00;99.90;;;;;;4922908;29;20043;-81
2023/12/16 08:31:54;;;;;;;3.45;2.88;;;5.10;99.90;;;;;;4937608;29;20044;-82
2023/12/16 08:34:20;;;;;;;7.68;3.90;;;5.10;99.90;;;;;;4930141;29;20036;-80
2023/12/16 08:36:48;;;;;;;2.83;2.60;;;5.20;99.90;;;;;;4925256;29;20042;-81
2023/12/16 08:39:15;;;;;;;4.10;2.75;;;5.20;99.90;;;;;;4921357;29;20096;-81
2023/12/16 08:41:42;;;;;;;2.03;1.88;;;5.20;99.90;;;;;;4923060;29;20046;-81
2023/12/16 08:44:08;;;;;;;2.45;2.25;;;5.30;99.90;;;;;;4944510;29;20039;-80
2023/12/16 08:46:41;;;;;;;6.90;2.38;;;5.30;99.90;;;;;;4925374;29;20493;-80
2023/12/16 08:49:07;;;;;;;2.22;2.03;;;5.30;99.90;;;;;;4921246;29;20050;-81
2023/12/16 08:51:34;;;;;;;2.05;1.95;;;5.30;99.90;;;;;;4921931;29;20035;-80
2023/12/16 08:54:00;;;;;;;4.50;3.85;;;5.30;99.90;;;;;;4926031;29;20370;-80
2023/12/16 08:56:26;;;;;;;3.83;2.13;;;5.40;99.90;;;;;;4928269;29;20035;-79
2023/12/16 08:58:52;;;;;;;5.75;3.72;;;5.40;99.90;;;;;;4922384;29;20032;-81
2023/12/16 09:01:19;;;;;;;1.95;1.85;;;5.40;99.90;;;;;;4924670;29;20043;-81
2023/12/16 09:03:46;;;;;;;1.17;1.15;;;5.50;99.90;;;;;;4923627;29;20106;-83
2023/12/16 09:06:13;;;;;;;5.00;2.83;;;5.50;99.90;;;;;;4928790;29;20043;-82
2023/12/16 09:08:39;;;;;;;1.60;1.50;;;5.60;99.90;;;;;;4937483;29;20044;-82
2023/12/16 09:11:05;;;;;;;2.67;2.17;;;5.60;99.90;;;;;;4933049;28;20047;-82
2023/12/16 09:13:32;;;;;;;2.28;2.15;;;5.60;99.90;;;;;;4924462;29;20252;-83
2023/12/16 09:15:58;;;;;;;1.25;1.15;;;5.60;99.90;;;;;;4926838;29;20051;-82
2023/12/16 09:18:24;;;;;;;1.80;1.70;;;5.60;99.90;;;;;;4945216;28;20046;-82
2023/12/16 09:20:50;;;;;;;3.25;2.95;;;5.70;99.90;;;;;;4938387;29;20055;-82
2023/12/16 09:23:17;;;;;;;1.90;1.80;;;5.70;99.90;;;;;;4942558;29;20052;-82
2023/12/16 09:25:44;;;;;;;2.70;2.55;;;5.70;99.90;;;;;;4929444;29;20036;-82
2023/12/16 09:28:10;;;;;;;2.47;2.30;;;5.80;99.90;;;;;;4931163;29;20476;-83
2023/12/16 09:30:36;;;;;;;3.25;1.75;;;5.80;99.90;;;;;;4931381;29;20465;-82
2023/12/16 09:33:04;;;;;;;2.38;2.22;;;5.90;99.90;;;;;;4930972;29;20039;-82
2023/12/16 09:35:30;;;;;;;2.30;1.77;;;6.00;99.90;;;;;;4966713;28;20028;-82
2023/12/16 09:37:56;;;;;;;2.78;2.28;;;6.10;99.90;;;;;;4967264;28;20055;-82
2023/12/16 09:40:22;;;;;;;3.50;2.78;;;6.10;99.90;;;;;;4965957;28;20060;-82
2023/12/16 09:42:51;;;;;;;2.00;1.88;;;6.10;99.90;;;;;;4948592;28;20062;-82
2023/12/16 09:45:17;;;;;;;2.90;2.70;;;6.20;99.90;;;;;;4906589;29;20059;-82
2023/12/16 09:47:44;;;;;;;3.45;2.05;;;6.20;99.90;;;;;;4942671;29;20044;-81
2023/12/16 09:50:11;;;;;;;4.95;3.33;;;6.20;99.90;;;;;;4930300;29;20048;-81
2023/12/16 09:52:40;;;;;;;3.00;2.13;;;6.30;99.90;;;;;;4909187;29;20056;-81
2023/12/16 09:55:07;;;;;;;2.75;2.08;;;6.30;99.90;;;;;;4927622;29;20028;-81
2023/12/16 09:57:36;;;;;;;1.67;1.58;;;6.30;99.90;;;;;;4931081;29;20027;-81
2023/12/16 10:00:02;;;;;;;2.70;2.50;;;6.30;99.90;;;;;;4928849;29;20028;-81
2023/12/16 10:02:33;;;;;;;2.03;1.92;;;6.40;99.90;;;;;;4937795;29;20047;-79
2023/12/16 10:05:01;;;;;;;2.08;1.98;;;6.40;99.90;;;;;;4927003;29;20050;-80
2023/12/16 10:07:27;;;;;;;3.65;2.60;;;6.50;99.90;;;;;;4940361;28;20458;-80
2023/12/16 10:09:54;;;;;;;2.75;2.47;;;6.60;99.90;;;;;;4925091;29;20035;-82
2023/12/16 10:12:20;;;;;;;2.38;2.08;;;6.60;98.20;;;;;;4924263;29;20059;-80
2023/12/16 10:14:50;;;;;;;2.80;2.58;;;6.70;47.70;;;;;;4926054;29;20032;-81
2023/12/16 10:17:18;;;;;;;3.23;2.80;;;6.80;1.00;;;;;;4928480;29;20036;-80
2023/12/16 10:19:46;;;;;;;1.98;1.88;;;6.80;1.00;;;;;;4925210;29;20278;-80
2023/12/16 10:22:13;;;;;;;1.85;1.52;;;6.90;1.00;;;;;;4929431;29;20051;-80
2023/12/16 10:24:41;;;;;;;1.70;1.27;;;6.90;1.00;;;;;;4922483;29;20051;-80
2023/12/16 10:27:08;;;;;;;3.20;2.90;;;7.00;99.90;;;;;;4921213;29;20393;-80
2023/12/16 10:29:34;;;;;;;3.70;3.35;;;7.00;99.90;;;;;;4924787;29;20036;-80
2023/12/16 10:32:01;;;;;;;2.40;2.20;;;7.10;99.90;;;;;;4926596;29;20040;-81
2023/12/16 10:34:30;;;;;;;1.95;1.67;;;7.10;99.90;;;;;;4944425;28;20367;-80
2023/12/16 10:37:09;;;;;;;4.35;2.67;;;7.10;99.90;;;;;;4930571;29;20050;-81
2023/12/16 10:39:36;;;;;;;9.48;3.15;;;7.20;99.90;;;;;;4927564;29;20040;-81
2023/12/16 10:42:03;;;;;;;2.10;1.80;;;7.20;99.90;;;;;;4930938;29;20036;-81
2023/12/16 10:44:29;;;;;;;1.60;1.30;;;7.30;99.90;;;;;;4949108;29;20043;-80
2023/12/16 10:46:55;;;;;;;3.10;1.75;;;7.40;99.90;;;;;;4953110;28;20051;-87
2023/12/16 10:49:29;;;;;;;2.85;2.20;;;7.40;99.90;;;;;;4933848;29;20042;-81
2023/12/16 10:52:03;;;;;;;9.55;3.65;;;7.50;99.90;;;;;;4927711;29;20039;-82
2023/12/16 10:54:38;;;;;;;2.15;1.90;;;7.50;99.90;;;;;;4931389;29;20040;-82
2023/12/16 10:57:15;;;;;;;4.53;4.18;;;7.50;99.90;;;;;;4911675;29;20051;-81
2023/12/16 10:59:47;;;;;;;2.35;2.15;;;7.60;99.90;;;;;;4927137;29;20043;-82
2023/12/16 11:02:23;;;;;;;2.97;1.75;;;7.60;99.90;;;;;;4945541;29;20050;-82
2023/12/16 11:05:03;;;;;;;2.95;1.83;;;7.60;99.90;;;;;;4933627;29;20032;-82
2023/12/16 11:07:33;;;;;;;4.20;1.30;;;7.60;99.90;;;;;;4931071;29;20039;-82
2023/12/16 11:09:59;;;;;;;10.10;3.25;;;7.70;99.90;;;;;;4944875;29;20028;-83
2023/12/16 11:12:26;;;;;;;3.80;3.47;;;7.70;99.90;;;;;;4948083;29;20047;-81
2023/12/16 11:14:55;;;;;;;6.22;1.42;;;7.70;93.80;;;;;;4931311;29;20029;-82
2023/12/16 11:17:25;;;;;;;1.90;1.80;;;7.70;79.00;;;;;;4932684;29;20059;-82
2023/12/16 11:20:12;;;;;;;;;;;7.80;84.90;;;;;;4944009;29;20040;-82
2023/12/16 11:22:51;;;;;;;4.10;3.28;;;7.90;54.90;;;;;;4928817;29;19926;-82
2023/12/16 11:25:19;;;;;;;1.92;1.52;;;8.00;28.80;;;;;;4945148;29;20035;-82
2023/12/16 11:27:50;;;;;;;1.73;1.63;;;8.10;1.50;;;;;;4929093;29;20028;-81
2023/12/16 11:30:18;;;;;;;4.53;3.53;;;8.10;1.00;;;;;;4929241;29;20020;-81
2023/12/16 11:32:52;;;;;;;2.38;1.80;;;8.20;1.00;;;;;;4927259;29;20040;-81
2023/12/16 11:35:40;;;;;;;1.75;1.65;;;8.20;1.00;;;;;;4945774;29;20039;-79
2023/12/16 11:38:07;;;;;;;3.10;2.15;;;8.20;1.00;;;;;;4931777;29;20035;-81
2023/12/16 11:40:41;;;;;;;1.85;1.70;;;8.10;1.00;;;;;;4924699;29;20064;-79
2023/12/16 11:43:08;;;;;;;2.20;2.10;;;8.10;1.00;;;;;;4906154;29;20052;-81
2023/12/16 11:45:39;;;;;;;2.63;2.22;;;8.10;1.00;;;;;;4930164;29;20047;-80
2023/12/16 11:48:06;;;;;;;;;;;8.20;1.00;;;;;;4934005;29;20142;-80
2023/12/16 11:50:34;;;;;;;1.08;1.08;;;8.20;1.00;;;;;;4940936;29;19938;-82
2023/12/16 11:53:01;;;;;;;3.22;2.15;;;8.30;1.00;;;;;;4921186;29;20032;-81
2023/12/16 11:55:27;;;;;;;3.00;1.90;;;8.30;1.00;;;;;;4920936;29;20044;-81
2023/12/16 11:57:54;;;;;;;1.42;1.30;;;8.30;1.00;;;;;;4928149;29;20027;-80
2023/12/16 12:00:21;;;;;;;2.08;1.95;;;8.30;1.00;;;;;;4928504;29;20031;-81
2023/12/16 12:02:50;;;;;;;3.13;1.40;;;8.30;1.00;;;;;;4925445;29;20040;-82
2023/12/16 12:05:16;;;;;;;1.30;1.20;;;8.30;99.90;;;;;;4920741;29;20039;-81
2023/12/16 12:07:43;;;;;;;2.95;1.10;;;8.40;99.90;;;;;;4947683;29;20048;-74
2023/12/16 12:10:10;;;;;;;4.95;2.08;;;8.60;1.00;;;;;;4924611;29;20031;-74
2023/12/16 12:12:36;;;;;;;3.67;3.05;;;8.50;99.90;;;;;;4926318;29;20062;-74
2023/12/16 12:15:02;;;;;;;1.48;0.93;;;8.50;99.90;;;;;;4919693;29;20040;-74
2023/12/16 12:17:29;;;;;;;2.90;1.17;;;8.50;99.90;;;;;;4926786;29;20032;-74
2023/12/16 12:19:58;;;;;;;1.88;1.33;;;8.40;99.90;;;;;;4926726;29;20465;-74
2023/12/16 12:22:24;;;;;;;1.08;0.65;;;8.30;99.90;;;;;;4926901;29;20039;-74
2023/12/16 12:24:51;;;;;;;1.65;1.08;;;8.30;99.90;;;;;;4924026;29;20398;-74
2023/12/16 12:27:20;;;;;;;2.72;1.85;;;8.20;99.90;;;;;;4925907;29;20056;-74
2023/12/16 12:29:57;;;;;;;0.75;0.63;;;8.20;1.00;;;;;;4926511;29;20028;-74
2023/12/16 12:32:24;;;;;;;1.10;1.02;;;8.30;99.90;;;;;;4927969;29;20441;-76
2023/12/16 12:35:05;;;;;;;0.32;0.32;;;8.30;99.90;;;;;;4926493;29;20477;-76
2023/12/16 12:37:34;;;;;;;3.10;0.93;;;8.30;99.90;;;;;;4931137;29;20042;-77
2023/12/16 12:40:01;;;;;;;0.32;0.32;;;8.30;99.90;;;;;;4925800;29;20035;-75
2023/12/16 12:42:27;;;;;;;0.38;0.38;;;8.30;99.90;;;;;;4926548;29;20039;-75
2023/12/16 12:44:53;;;;;;;0.95;0.95;;;8.30;99.90;;;;;;4925647;29;20042;-75
2023/12/16 12:47:30;;;;;;;0.40;0.40;;;8.40;99.90;;;;;;4945817;28;20047;-75
2023/12/16 12:49:56;;;;;;;0.47;0.47;;;8.30;99.90;;;;;;4963658;28;20050;-74
2023/12/16 12:52:38;;;;;;;4.18;1.23;;;8.30;99.90;;;;;;4965077;28;20047;-75
2023/12/16 12:55:05;;;;;;;2.17;1.42;;;8.20;99.90;;;;;;4959190;28;20039;-76
2023/12/16 12:57:32;;;;;;;5.00;0.45;;;8.10;99.90;;;;;;4951252;28;20042;-75